sensor_id;sensor_type;location;lat;lon;timestamp;P1;durP1;ratioP1;P2;durP2;ratioP2
4011;SDS011;2020;48.682;9.024;2022-07-24T00:01:51;13.17;;;12.03;;
4011;SDS011;2020;48.682;9.024;2022-07-24T00:04:16;13.00;;;12.10;;
4011;SDS011;2020;48.682;9.024;2022-07-24T00:06:41;13.77;;;12.57;;
4011;SDS011;2020;48.682;9.024;2022-07-24T00:09:07;12.77;;;11.97;;
4011;SDS011;2020;48.682;9.024;2022-07-24T00:11:32;13.50;;;12.50;;
4011;SDS011;2020;48.682;9.024;2022-07-24T00:13:58;12.90;;;12.10;;
4011;SDS011;2020;48.682;9.024;2022-07-24T00:16:23;14.43;;;13.37;;
4011;SDS011;2020;48.682;9.024;2022-07-24T00:18:49;13.00;;;11.93;;
4011;SDS011;2020;48.682;9.024;2022-07-24T00:21:14;14.07;;;13.07;;
4011;SDS011;2020;48.682;9.024;2022-07-24T00:23:40;12.63;;;11.73;;
4011;SDS011;2020;48.682;9.024;2022-07-24T00:26:08;12.50;;;11.60;;
4011;SDS011;2020;48.682;9.024;2022-07-24T00:28:34;13.53;;;12.47;;
4011;SDS011;2020;48.682;9.024;2022-07-24T00:30:59;14.97;;;13.90;;
4011;SDS011;2020;48.682;9.024;2022-07-24T00:33:24;15.40;;;13.87;;
4011;SDS011;2020;48.682;9.024;2022-07-24T00:35:50;13.70;;;12.50;;
4011;SDS011;2020;48.682;9.024;2022-07-24T00:38:15;13.53;;;12.53;;
4011;SDS011;2020;48.682;9.024;2022-07-24T00:40:41;12.50;;;11.70;;
4011;SDS011;2020;48.682;9.024;2022-07-24T00:43:06;13.37;;;12.40;;
4011;SDS011;2020;48.682;9.024;2022-07-24T00:45:31;14.07;;;13.07;;
4011;SDS011;2020;48.682;9.024;2022-07-24T00:47:56;14.40;;;13.30;;
4011;SDS011;2020;48.682;9.024;2022-07-24T00:50:22;12.43;;;11.53;;
4011;SDS011;2020;48.682;9.024;2022-07-24T00:52:47;14.17;;;13.07;;
4011;SDS011;2020;48.682;9.024;2022-07-24T00:55:14;12.93;;;12.00;;
4011;SDS011;2020;48.682;9.024;2022-07-24T00:57:40;14.40;;;13.30;;
4011;SDS011;2020;48.682;9.024;2022-07-24T01:00:09;13.50;;;12.40;;
4011;SDS011;2020;48.682;9.024;2022-07-24T01:02:35;15.03;;;13.87;;
4011;SDS011;2020;48.682;9.024;2022-07-24T01:05:04;13.80;;;12.67;;
4011;SDS011;2020;48.682;9.024;2022-07-24T01:07:30;13.80;;;12.80;;
4011;SDS011;2020;48.682;9.024;2022-07-24T01:09:55;14.63;;;13.43;;
4011;SDS011;2020;48.682;9.024;2022-07-24T01:12:21;13.07;;;12.27;;
4011;SDS011;2020;48.682;9.024;2022-07-24T01:14:47;13.33;;;11.97;;
4011;SDS011;2020;48.682;9.024;2022-07-24T01:17:12;14.93;;;13.57;;
4011;SDS011;2020;48.682;9.024;2022-07-24T01:19:37;14.20;;;13.10;;
4011;SDS011;2020;48.682;9.024;2022-07-24T01:22:03;14.80;;;13.67;;
4011;SDS011;2020;48.682;9.024;2022-07-24T01:24:28;14.00;;;12.70;;
4011;SDS011;2020;48.682;9.024;2022-07-24T01:26:55;14.80;;;13.60;;
4011;SDS011;2020;48.682;9.024;2022-07-24T01:29:21;14.33;;;13.03;;
4011;SDS011;2020;48.682;9.024;2022-07-24T01:31:46;13.93;;;12.93;;
4011;SDS011;2020;48.682;9.024;2022-07-24T01:34:11;13.97;;;12.80;;
4011;SDS011;2020;48.682;9.024;2022-07-24T01:36:37;15.53;;;14.13;;
4011;SDS011;2020;48.682;9.024;2022-07-24T01:39:03;13.47;;;12.47;;
4011;SDS011;2020;48.682;9.024;2022-07-24T01:41:28;13.97;;;12.93;;
4011;SDS011;2020;48.682;9.024;2022-07-24T01:43:53;14.03;;;12.97;;
4011;SDS011;2020;48.682;9.024;2022-07-24T01:46:19;13.33;;;12.20;;
4011;SDS011;2020;48.682;9.024;2022-07-24T01:48:44;14.23;;;13.10;;
4011;SDS011;2020;48.682;9.024;2022-07-24T01:51:10;13.30;;;12.30;;
4011;SDS011;2020;48.682;9.024;2022-07-24T01:53:35;14.80;;;13.80;;
4011;SDS011;2020;48.682;9.024;2022-07-24T01:56:01;15.03;;;13.90;;
4011;SDS011;2020;48.682;9.024;2022-07-24T01:58:26;15.67;;;13.80;;
4011;SDS011;2020;48.682;9.024;2022-07-24T02:00:52;13.10;;;12.10;;
4011;SDS011;2020;48.682;9.024;2022-07-24T02:03:17;13.53;;;12.43;;
4011;SDS011;2020;48.682;9.024;2022-07-24T02:05:43;12.70;;;11.70;;
4011;SDS011;2020;48.682;9.024;2022-07-24T02:08:08;13.50;;;12.50;;
4011;SDS011;2020;48.682;9.024;2022-07-24T02:10:34;14.30;;;13.30;;
4011;SDS011;2020;48.682;9.024;2022-07-24T02:12:59;13.23;;;12.23;;
4011;SDS011;2020;48.682;9.024;2022-07-24T02:15:25;13.47;;;12.40;;
4011;SDS011;2020;48.682;9.024;2022-07-24T02:17:51;12.83;;;11.93;;
4011;SDS011;2020;48.682;9.024;2022-07-24T02:20:19;13.70;;;12.60;;
4011;SDS011;2020;48.682;9.024;2022-07-24T02:22:44;13.30;;;12.30;;
4011;SDS011;2020;48.682;9.024;2022-07-24T02:25:10;14.80;;;13.43;;
4011;SDS011;2020;48.682;9.024;2022-07-24T02:27:35;13.10;;;12.20;;
4011;SDS011;2020;48.682;9.024;2022-07-24T02:30:02;14.30;;;13.30;;
4011;SDS011;2020;48.682;9.024;2022-07-24T02:32:29;12.87;;;11.90;;
4011;SDS011;2020;48.682;9.024;2022-07-24T02:34:55;13.70;;;12.53;;
4011;SDS011;2020;48.682;9.024;2022-07-24T02:37:20;12.90;;;12.00;;
4011;SDS011;2020;48.682;9.024;2022-07-24T02:39:45;13.10;;;12.10;;
4011;SDS011;2020;48.682;9.024;2022-07-24T02:42:10;12.20;;;11.37;;
4011;SDS011;2020;48.682;9.024;2022-07-24T02:44:35;12.67;;;11.57;;
4011;SDS011;2020;48.682;9.024;2022-07-24T02:47:01;12.17;;;11.20;;
4011;SDS011;2020;48.682;9.024;2022-07-24T02:49:26;12.00;;;11.30;;
4011;SDS011;2020;48.682;9.024;2022-07-24T02:51:51;12.50;;;11.73;;
4011;SDS011;2020;48.682;9.024;2022-07-24T02:54:17;12.00;;;11.20;;
4011;SDS011;2020;48.682;9.024;2022-07-24T02:56:42;13.13;;;12.23;;
4011;SDS011;2020;48.682;9.024;2022-07-24T02:59:07;12.60;;;11.60;;
4011;SDS011;2020;48.682;9.024;2022-07-24T03:01:33;12.53;;;11.63;;
4011;SDS011;2020;48.682;9.024;2022-07-24T03:03:58;11.77;;;10.97;;
4011;SDS011;2020;48.682;9.024;2022-07-24T03:06:23;12.33;;;11.33;;
4011;SDS011;2020;48.682;9.024;2022-07-24T03:08:48;11.50;;;10.60;;
4011;SDS011;2020;48.682;9.024;2022-07-24T03:11:14;13.50;;;12.30;;
4011;SDS011;2020;48.682;9.024;2022-07-24T03:13:39;11.20;;;10.40;;
4011;SDS011;2020;48.682;9.024;2022-07-24T03:16:05;15.30;;;14.00;;
4011;SDS011;2020;48.682;9.024;2022-07-24T03:18:30;12.77;;;11.77;;
4011;SDS011;2020;48.682;9.024;2022-07-24T03:20:56;11.97;;;11.20;;
4011;SDS011;2020;48.682;9.024;2022-07-24T03:23:21;13.13;;;12.00;;
4011;SDS011;2020;48.682;9.024;2022-07-24T03:25:46;13.33;;;12.23;;
4011;SDS011;2020;48.682;9.024;2022-07-24T03:28:12;12.97;;;11.77;;
4011;SDS011;2020;48.682;9.024;2022-07-24T03:30:37;12.93;;;11.83;;
4011;SDS011;2020;48.682;9.024;2022-07-24T03:33:02;12.40;;;11.50;;
4011;SDS011;2020;48.682;9.024;2022-07-24T03:35:27;14.63;;;12.50;;
4011;SDS011;2020;48.682;9.024;2022-07-24T03:37:53;12.83;;;11.70;;
4011;SDS011;2020;48.682;9.024;2022-07-24T03:40:18;11.90;;;11.00;;
4011;SDS011;2020;48.682;9.024;2022-07-24T03:42:43;11.60;;;10.80;;
4011;SDS011;2020;48.682;9.024;2022-07-24T03:45:09;12.77;;;11.83;;
4011;SDS011;2020;48.682;9.024;2022-07-24T03:47:34;12.50;;;11.70;;
4011;SDS011;2020;48.682;9.024;2022-07-24T03:50:00;13.57;;;12.47;;
4011;SDS011;2020;48.682;9.024;2022-07-24T03:52:25;12.90;;;11.93;;
4011;SDS011;2020;48.682;9.024;2022-07-24T03:54:50;11.33;;;10.50;;
4011;SDS011;2020;48.682;9.024;2022-07-24T03:57:16;13.23;;;12.20;;
4011;SDS011;2020;48.682;9.024;2022-07-24T03:59:41;11.17;;;10.40;;
4011;SDS011;2020;48.682;9.024;2022-07-24T04:02:06;11.20;;;10.50;;
4011;SDS011;2020;48.682;9.024;2022-07-24T04:04:32;11.83;;;10.93;;
4011;SDS011;2020;48.682;9.024;2022-07-24T04:06:57;11.37;;;10.57;;
4011;SDS011;2020;48.682;9.024;2022-07-24T04:09:22;13.10;;;12.10;;
4011;SDS011;2020;48.682;9.024;2022-07-24T04:11:47;12.20;;;11.30;;
4011;SDS011;2020;48.682;9.024;2022-07-24T04:14:13;12.33;;;11.40;;
4011;SDS011;2020;48.682;9.024;2022-07-24T04:16:38;11.20;;;10.30;;
4011;SDS011;2020;48.682;9.024;2022-07-24T04:19:03;12.60;;;11.60;;
4011;SDS011;2020;48.682;9.024;2022-07-24T04:21:29;11.20;;;10.40;;
4011;SDS011;2020;48.682;9.024;2022-07-24T04:23:54;12.07;;;11.00;;
4011;SDS011;2020;48.682;9.024;2022-07-24T04:26:19;11.33;;;10.53;;
4011;SDS011;2020;48.682;9.024;2022-07-24T04:28:45;11.87;;;10.80;;
4011;SDS011;2020;48.682;9.024;2022-07-24T04:31:10;11.17;;;10.30;;
4011;SDS011;2020;48.682;9.024;2022-07-24T04:33:35;12.70;;;11.80;;
4011;SDS011;2020;48.682;9.024;2022-07-24T04:36:02;11.37;;;10.47;;
4011;SDS011;2020;48.682;9.024;2022-07-24T04:38:28;12.17;;;11.27;;
4011;SDS011;2020;48.682;9.024;2022-07-24T04:40:54;12.23;;;11.33;;
4011;SDS011;2020;48.682;9.024;2022-07-24T04:43:19;12.30;;;11.10;;
4011;SDS011;2020;48.682;9.024;2022-07-24T04:45:44;11.30;;;10.40;;
4011;SDS011;2020;48.682;9.024;2022-07-24T04:48:09;11.77;;;10.87;;
4011;SDS011;2020;48.682;9.024;2022-07-24T04:50:35;10.63;;;9.90;;
4011;SDS011;2020;48.682;9.024;2022-07-24T04:53:00;11.80;;;10.63;;
4011;SDS011;2020;48.682;9.024;2022-07-24T04:55:25;11.33;;;10.53;;
4011;SDS011;2020;48.682;9.024;2022-07-24T04:57:51;10.13;;;9.50;;
4011;SDS011;2020;48.682;9.024;2022-07-24T05:00:16;12.43;;;11.40;;
4011;SDS011;2020;48.682;9.024;2022-07-24T05:02:42;11.80;;;11.07;;
4011;SDS011;2020;48.682;9.024;2022-07-24T05:05:07;12.57;;;11.63;;
4011;SDS011;2020;48.682;9.024;2022-07-24T05:07:33;11.90;;;10.70;;
4011;SDS011;2020;48.682;9.024;2022-07-24T05:09:58;12.03;;;11.23;;
4011;SDS011;2020;48.682;9.024;2022-07-24T05:12:24;12.33;;;11.43;;
4011;SDS011;2020;48.682;9.024;2022-07-24T05:14:50;12.20;;;11.30;;
4011;SDS011;2020;48.682;9.024;2022-07-24T05:17:15;12.20;;;11.30;;
4011;SDS011;2020;48.682;9.024;2022-07-24T05:19:41;13.13;;;12.13;;
4011;SDS011;2020;48.682;9.024;2022-07-24T05:22:06;13.30;;;12.20;;
4011;SDS011;2020;48.682;9.024;2022-07-24T05:24:32;13.50;;;12.27;;
4011;SDS011;2020;48.682;9.024;2022-07-24T05:26:57;12.17;;;11.23;;
4011;SDS011;2020;48.682;9.024;2022-07-24T05:29:22;12.20;;;11.20;;
4011;SDS011;2020;48.682;9.024;2022-07-24T05:31:48;11.07;;;10.37;;
4011;SDS011;2020;48.682;9.024;2022-07-24T05:34:14;11.20;;;10.50;;
4011;SDS011;2020;48.682;9.024;2022-07-24T05:36:39;11.93;;;11.07;;
4011;SDS011;2020;48.682;9.024;2022-07-24T05:39:05;11.33;;;10.43;;
4011;SDS011;2020;48.682;9.024;2022-07-24T05:41:30;12.20;;;11.20;;
4011;SDS011;2020;48.682;9.024;2022-07-24T05:43:56;11.13;;;10.23;;
4011;SDS011;2020;48.682;9.024;2022-07-24T05:46:21;10.57;;;9.87;;
4011;SDS011;2020;48.682;9.024;2022-07-24T05:48:46;10.40;;;9.77;;
4011;SDS011;2020;48.682;9.024;2022-07-24T05:51:12;11.13;;;10.33;;
4011;SDS011;2020;48.682;9.024;2022-07-24T05:53:37;12.80;;;11.43;;
4011;SDS011;2020;48.682;9.024;2022-07-24T05:56:03;11.03;;;10.33;;
4011;SDS011;2020;48.682;9.024;2022-07-24T05:58:29;10.93;;;10.13;;
4011;SDS011;2020;48.682;9.024;2022-07-24T06:00:54;10.40;;;9.73;;
4011;SDS011;2020;48.682;9.024;2022-07-24T06:03:20;10.80;;;9.97;;
4011;SDS011;2020;48.682;9.024;2022-07-24T06:05:45;10.50;;;9.83;;
4011;SDS011;2020;48.682;9.024;2022-07-24T06:08:10;11.93;;;10.93;;
4011;SDS011;2020;48.682;9.024;2022-07-24T06:10:36;10.47;;;9.73;;
4011;SDS011;2020;48.682;9.024;2022-07-24T06:13:01;10.77;;;9.97;;
4011;SDS011;2020;48.682;9.024;2022-07-24T06:15:26;10.10;;;9.20;;
4011;SDS011;2020;48.682;9.024;2022-07-24T06:17:52;10.93;;;10.10;;
4011;SDS011;2020;48.682;9.024;2022-07-24T06:20:17;10.93;;;9.90;;
4011;SDS011;2020;48.682;9.024;2022-07-24T06:22:43;8.60;;;8.20;;
4011;SDS011;2020;48.682;9.024;2022-07-24T06:25:09;9.47;;;8.77;;
4011;SDS011;2020;48.682;9.024;2022-07-24T06:27:42;8.93;;;8.33;;
4011;SDS011;2020;48.682;9.024;2022-07-24T06:30:17;8.87;;;8.30;;
4011;SDS011;2020;48.682;9.024;2022-07-24T06:32:44;10.70;;;9.67;;
4011;SDS011;2020;48.682;9.024;2022-07-24T06:35:10;9.83;;;9.13;;
4011;SDS011;2020;48.682;9.024;2022-07-24T06:37:36;9.60;;;9.00;;
4011;SDS011;2020;48.682;9.024;2022-07-24T06:40:01;10.77;;;9.67;;
4011;SDS011;2020;48.682;9.024;2022-07-24T06:42:28;9.97;;;9.27;;
4011;SDS011;2020;48.682;9.024;2022-07-24T06:44:53;9.40;;;8.70;;
4011;SDS011;2020;48.682;9.024;2022-07-24T06:47:18;8.53;;;8.03;;
4011;SDS011;2020;48.682;9.024;2022-07-24T06:49:44;9.73;;;9.07;;
4011;SDS011;2020;48.682;9.024;2022-07-24T06:52:09;9.60;;;8.90;;
4011;SDS011;2020;48.682;9.024;2022-07-24T06:54:34;9.00;;;8.60;;
4011;SDS011;2020;48.682;9.024;2022-07-24T06:56:59;8.40;;;7.90;;
4011;SDS011;2020;48.682;9.024;2022-07-24T06:59:25;8.77;;;8.20;;
4011;SDS011;2020;48.682;9.024;2022-07-24T07:01:50;7.80;;;7.40;;
4011;SDS011;2020;48.682;9.024;2022-07-24T07:04:16;8.17;;;7.67;;
4011;SDS011;2020;48.682;9.024;2022-07-24T07:06:42;9.50;;;8.80;;
4011;SDS011;2020;48.682;9.024;2022-07-24T07:09:07;9.20;;;8.60;;
4011;SDS011;2020;48.682;9.024;2022-07-24T07:11:32;8.90;;;8.40;;
4011;SDS011;2020;48.682;9.024;2022-07-24T07:13:57;9.40;;;8.80;;
4011;SDS011;2020;48.682;9.024;2022-07-24T07:16:23;8.93;;;8.33;;
4011;SDS011;2020;48.682;9.024;2022-07-24T07:18:48;9.83;;;8.87;;
4011;SDS011;2020;48.682;9.024;2022-07-24T07:21:14;9.73;;;8.73;;
4011;SDS011;2020;48.682;9.024;2022-07-24T07:23:39;7.43;;;7.00;;
4011;SDS011;2020;48.682;9.024;2022-07-24T07:26:04;8.37;;;7.97;;
4011;SDS011;2020;48.682;9.024;2022-07-24T07:28:30;7.60;;;7.17;;
4011;SDS011;2020;48.682;9.024;2022-07-24T07:30:55;8.80;;;8.30;;
4011;SDS011;2020;48.682;9.024;2022-07-24T07:33:20;8.60;;;8.03;;
4011;SDS011;2020;48.682;9.024;2022-07-24T07:35:45;8.77;;;8.23;;
4011;SDS011;2020;48.682;9.024;2022-07-24T07:38:11;8.43;;;8.03;;
4011;SDS011;2020;48.682;9.024;2022-07-24T07:40:36;8.30;;;7.80;;
4011;SDS011;2020;48.682;9.024;2022-07-24T07:43:01;7.80;;;7.27;;
4011;SDS011;2020;48.682;9.024;2022-07-24T07:45:27;8.83;;;8.30;;
4011;SDS011;2020;48.682;9.024;2022-07-24T07:47:52;7.30;;;6.97;;
4011;SDS011;2020;48.682;9.024;2022-07-24T07:50:17;7.70;;;7.20;;
4011;SDS011;2020;48.682;9.024;2022-07-24T07:52:42;8.33;;;7.73;;
4011;SDS011;2020;48.682;9.024;2022-07-24T07:55:08;8.20;;;7.57;;
4011;SDS011;2020;48.682;9.024;2022-07-24T07:57:35;8.83;;;8.23;;
4011;SDS011;2020;48.682;9.024;2022-07-24T08:00:00;7.80;;;7.50;;
4011;SDS011;2020;48.682;9.024;2022-07-24T08:02:26;7.90;;;7.50;;
4011;SDS011;2020;48.682;9.024;2022-07-24T08:04:51;8.33;;;7.67;;
4011;SDS011;2020;48.682;9.024;2022-07-24T08:07:16;7.93;;;7.53;;
4011;SDS011;2020;48.682;9.024;2022-07-24T08:09:41;7.93;;;7.60;;
4011;SDS011;2020;48.682;9.024;2022-07-24T08:12:07;8.60;;;7.87;;
4011;SDS011;2020;48.682;9.024;2022-07-24T08:14:32;7.03;;;6.73;;
4011;SDS011;2020;48.682;9.024;2022-07-24T08:16:58;7.93;;;7.53;;
4011;SDS011;2020;48.682;9.024;2022-07-24T08:19:23;7.37;;;6.97;;
4011;SDS011;2020;48.682;9.024;2022-07-24T08:21:48;7.50;;;7.10;;
4011;SDS011;2020;48.682;9.024;2022-07-24T08:24:14;6.80;;;6.50;;
4011;SDS011;2020;48.682;9.024;2022-07-24T08:26:45;8.17;;;7.60;;
4011;SDS011;2020;48.682;9.024;2022-07-24T08:29:14;7.60;;;7.20;;
4011;SDS011;2020;48.682;9.024;2022-07-24T08:31:39;8.43;;;7.73;;
4011;SDS011;2020;48.682;9.024;2022-07-24T08:34:05;8.80;;;8.20;;
4011;SDS011;2020;48.682;9.024;2022-07-24T08:36:30;8.43;;;7.93;;
4011;SDS011;2020;48.682;9.024;2022-07-24T08:38:56;7.50;;;7.20;;
4011;SDS011;2020;48.682;9.024;2022-07-24T08:41:21;7.40;;;7.00;;
4011;SDS011;2020;48.682;9.024;2022-07-24T08:43:46;7.13;;;6.83;;
4011;SDS011;2020;48.682;9.024;2022-07-24T08:46:12;7.77;;;7.13;;
4011;SDS011;2020;48.682;9.024;2022-07-24T08:48:43;7.53;;;7.10;;
4011;SDS011;2020;48.682;9.024;2022-07-24T08:51:09;6.60;;;6.30;;
4011;SDS011;2020;48.682;9.024;2022-07-24T08:53:37;6.60;;;6.30;;
4011;SDS011;2020;48.682;9.024;2022-07-24T08:56:03;6.90;;;6.40;;
4011;SDS011;2020;48.682;9.024;2022-07-24T08:58:28;7.17;;;6.50;;
4011;SDS011;2020;48.682;9.024;2022-07-24T09:00:53;6.80;;;6.43;;
4011;SDS011;2020;48.682;9.024;2022-07-24T09:03:18;7.80;;;7.33;;
4011;SDS011;2020;48.682;9.024;2022-07-24T09:05:53;7.23;;;6.87;;
4011;SDS011;2020;48.682;9.024;2022-07-24T09:08:23;6.73;;;6.43;;
4011;SDS011;2020;48.682;9.024;2022-07-24T09:10:59;7.50;;;7.20;;
4011;SDS011;2020;48.682;9.024;2022-07-24T09:13:30;7.50;;;7.10;;
4011;SDS011;2020;48.682;9.024;2022-07-24T09:16:17;7.10;;;6.70;;
4011;SDS011;2020;48.682;9.024;2022-07-24T09:18:47;7.40;;;7.00;;
4011;SDS011;2020;48.682;9.024;2022-07-24T09:21:14;7.10;;;6.70;;
4011;SDS011;2020;48.682;9.024;2022-07-24T09:23:41;7.20;;;6.60;;
4011;SDS011;2020;48.682;9.024;2022-07-24T09:26:07;9.23;;;8.43;;
4011;SDS011;2020;48.682;9.024;2022-07-24T09:28:45;7.60;;;7.00;;
4011;SDS011;2020;48.682;9.024;2022-07-24T09:31:13;7.60;;;7.20;;
4011;SDS011;2020;48.682;9.024;2022-07-24T09:33:38;7.80;;;7.37;;
4011;SDS011;2020;48.682;9.024;2022-07-24T09:36:10;7.77;;;7.40;;
4011;SDS011;2020;48.682;9.024;2022-07-24T09:38:37;7.37;;;6.97;;
4011;SDS011;2020;48.682;9.024;2022-07-24T09:41:03;8.17;;;7.77;;
4011;SDS011;2020;48.682;9.024;2022-07-24T09:43:32;8.30;;;7.67;;
4011;SDS011;2020;48.682;9.024;2022-07-24T09:46:06;8.90;;;8.37;;
4011;SDS011;2020;48.682;9.024;2022-07-24T09:51:09;7.77;;;7.37;;
4011;SDS011;2020;48.682;9.024;2022-07-24T09:53:37;8.13;;;7.77;;
4011;SDS011;2020;48.682;9.024;2022-07-24T09:56:07;8.27;;;7.97;;
4011;SDS011;2020;48.682;9.024;2022-07-24T09:58:35;7.57;;;7.27;;
4011;SDS011;2020;48.682;9.024;2022-07-24T10:01:02;8.10;;;7.50;;
4011;SDS011;2020;48.682;9.024;2022-07-24T10:03:30;8.90;;;8.40;;
4011;SDS011;2020;48.682;9.024;2022-07-24T10:05:58;8.10;;;7.70;;
4011;SDS011;2020;48.682;9.024;2022-07-24T10:08:25;8.30;;;7.90;;
4011;SDS011;2020;48.682;9.024;2022-07-24T10:10:50;8.37;;;7.70;;
4011;SDS011;2020;48.682;9.024;2022-07-24T10:13:16;7.77;;;7.47;;
4011;SDS011;2020;48.682;9.024;2022-07-24T10:15:52;7.53;;;7.13;;
4011;SDS011;2020;48.682;9.024;2022-07-24T10:18:41;7.57;;;7.17;;
4011;SDS011;2020;48.682;9.024;2022-07-24T10:21:20;8.70;;;8.20;;
4011;SDS011;2020;48.682;9.024;2022-07-24T10:26:38;8.00;;;7.60;;
4011;SDS011;2020;48.682;9.024;2022-07-24T10:29:07;8.43;;;7.83;;
4011;SDS011;2020;48.682;9.024;2022-07-24T10:31:36;7.87;;;7.53;;
4011;SDS011;2020;48.682;9.024;2022-07-24T10:34:03;9.77;;;9.17;;
4011;SDS011;2020;48.682;9.024;2022-07-24T10:36:35;7.90;;;7.50;;
4011;SDS011;2020;48.682;9.024;2022-07-24T10:39:10;7.73;;;7.23;;
4011;SDS011;2020;48.682;9.024;2022-07-24T10:41:40;7.60;;;7.30;;
4011;SDS011;2020;48.682;9.024;2022-07-24T10:44:15;7.77;;;7.37;;
4011;SDS011;2020;48.682;9.024;2022-07-24T10:49:35;7.90;;;7.40;;
4011;SDS011;2020;48.682;9.024;2022-07-24T10:52:00;8.10;;;7.80;;
4011;SDS011;2020;48.682;9.024;2022-07-24T10:54:26;7.80;;;7.50;;
4011;SDS011;2020;48.682;9.024;2022-07-24T10:56:52;7.03;;;6.73;;
4011;SDS011;2020;48.682;9.024;2022-07-24T10:59:31;8.50;;;8.20;;
4011;SDS011;2020;48.682;9.024;2022-07-24T11:01:59;8.60;;;8.30;;
4011;SDS011;2020;48.682;9.024;2022-07-24T11:10:47;8.40;;;7.80;;
4011;SDS011;2020;48.682;9.024;2022-07-24T11:18:39;7.23;;;6.90;;
4011;SDS011;2020;48.682;9.024;2022-07-24T11:21:07;8.00;;;7.60;;
4011;SDS011;2020;48.682;9.024;2022-07-24T11:23:33;7.63;;;7.33;;
4011;SDS011;2020;48.682;9.024;2022-07-24T11:31:56;8.77;;;8.43;;
4011;SDS011;2020;48.682;9.024;2022-07-24T11:34:23;8.97;;;8.47;;
4011;SDS011;2020;48.682;9.024;2022-07-24T11:36:51;9.60;;;8.67;;
4011;SDS011;2020;48.682;9.024;2022-07-24T11:39:17;8.70;;;8.30;;
4011;SDS011;2020;48.682;9.024;2022-07-24T11:41:44;7.70;;;7.20;;
4011;SDS011;2020;48.682;9.024;2022-07-24T11:44:24;9.10;;;8.60;;
4011;SDS011;2020;48.682;9.024;2022-07-24T11:47:04;7.20;;;6.93;;
4011;SDS011;2020;48.682;9.024;2022-07-24T11:49:43;8.20;;;7.80;;
4011;SDS011;2020;48.682;9.024;2022-07-24T11:54:50;7.90;;;7.40;;
4011;SDS011;2020;48.682;9.024;2022-07-24T11:57:19;8.13;;;7.83;;
4011;SDS011;2020;48.682;9.024;2022-07-24T11:59:50;7.87;;;7.57;;
4011;SDS011;2020;48.682;9.024;2022-07-24T12:02:16;7.90;;;7.50;;
4011;SDS011;2020;48.682;9.024;2022-07-24T12:04:43;7.80;;;7.50;;
4011;SDS011;2020;48.682;9.024;2022-07-24T12:07:23;8.30;;;7.70;;
4011;SDS011;2020;48.682;9.024;2022-07-24T12:09:54;7.37;;;6.97;;
4011;SDS011;2020;48.682;9.024;2022-07-24T12:15:02;9.00;;;8.60;;
4011;SDS011;2020;48.682;9.024;2022-07-24T12:17:30;8.20;;;7.80;;
4011;SDS011;2020;48.682;9.024;2022-07-24T12:19:58;8.30;;;7.90;;
4011;SDS011;2020;48.682;9.024;2022-07-24T12:22:26;8.07;;;7.63;;
4011;SDS011;2020;48.682;9.024;2022-07-24T12:24:53;7.50;;;6.90;;
4011;SDS011;2020;48.682;9.024;2022-07-24T12:27:33;8.07;;;7.53;;
4011;SDS011;2020;48.682;9.024;2022-07-24T12:30:00;7.03;;;6.73;;
4011;SDS011;2020;48.682;9.024;2022-07-24T12:32:26;7.37;;;7.00;;
4011;SDS011;2020;48.682;9.024;2022-07-24T12:34:51;6.83;;;6.50;;
4011;SDS011;2020;48.682;9.024;2022-07-24T12:37:18;6.67;;;6.30;;
4011;SDS011;2020;48.682;9.024;2022-07-24T12:39:46;7.73;;;7.33;;
4011;SDS011;2020;48.682;9.024;2022-07-24T12:42:14;7.63;;;7.23;;
4011;SDS011;2020;48.682;9.024;2022-07-24T12:44:41;6.87;;;6.57;;
4011;SDS011;2020;48.682;9.024;2022-07-24T12:47:08;7.43;;;7.13;;
4011;SDS011;2020;48.682;9.024;2022-07-24T12:49:43;8.33;;;7.83;;
4011;SDS011;2020;48.682;9.024;2022-07-24T12:52:21;8.33;;;7.83;;
4011;SDS011;2020;48.682;9.024;2022-07-24T12:54:53;8.10;;;7.60;;
4011;SDS011;2020;48.682;9.024;2022-07-24T12:57:21;6.60;;;6.30;;
4011;SDS011;2020;48.682;9.024;2022-07-24T12:59:48;6.90;;;6.60;;
4011;SDS011;2020;48.682;9.024;2022-07-24T13:02:21;6.03;;;5.90;;
4011;SDS011;2020;48.682;9.024;2022-07-24T13:04:50;6.40;;;6.20;;
4011;SDS011;2020;48.682;9.024;2022-07-24T13:07:18;7.77;;;7.37;;
4011;SDS011;2020;48.682;9.024;2022-07-24T13:09:44;7.63;;;6.90;;
4011;SDS011;2020;48.682;9.024;2022-07-24T13:12:10;7.43;;;7.13;;
4011;SDS011;2020;48.682;9.024;2022-07-24T13:14:36;7.40;;;7.10;;
4011;SDS011;2020;48.682;9.024;2022-07-24T13:17:03;7.30;;;7.00;;
4011;SDS011;2020;48.682;9.024;2022-07-24T13:19:35;7.43;;;7.13;;
4011;SDS011;2020;48.682;9.024;2022-07-24T13:22:04;8.30;;;7.90;;
4011;SDS011;2020;48.682;9.024;2022-07-24T13:24:29;7.13;;;6.73;;
4011;SDS011;2020;48.682;9.024;2022-07-24T13:26:55;7.47;;;7.07;;
4011;SDS011;2020;48.682;9.024;2022-07-24T13:29:20;6.93;;;6.50;;
4011;SDS011;2020;48.682;9.024;2022-07-24T13:31:46;7.17;;;6.67;;
4011;SDS011;2020;48.682;9.024;2022-07-24T13:34:11;6.40;;;6.20;;
4011;SDS011;2020;48.682;9.024;2022-07-24T13:36:37;6.57;;;6.27;;
4011;SDS011;2020;48.682;9.024;2022-07-24T13:39:04;6.60;;;6.20;;
4011;SDS011;2020;48.682;9.024;2022-07-24T13:41:30;6.40;;;6.20;;
4011;SDS011;2020;48.682;9.024;2022-07-24T13:43:55;6.60;;;6.40;;
4011;SDS011;2020;48.682;9.024;2022-07-24T13:46:21;6.93;;;6.63;;
4011;SDS011;2020;48.682;9.024;2022-07-24T13:48:46;7.70;;;7.23;;
4011;SDS011;2020;48.682;9.024;2022-07-24T13:51:11;6.80;;;6.50;;
4011;SDS011;2020;48.682;9.024;2022-07-24T13:53:37;6.37;;;6.17;;
4011;SDS011;2020;48.682;9.024;2022-07-24T13:56:09;8.10;;;7.53;;
4011;SDS011;2020;48.682;9.024;2022-07-24T13:58:35;6.77;;;6.33;;
4011;SDS011;2020;48.682;9.024;2022-07-24T14:01:03;7.67;;;7.27;;
4011;SDS011;2020;48.682;9.024;2022-07-24T14:03:29;7.97;;;7.47;;
4011;SDS011;2020;48.682;9.024;2022-07-24T14:05:55;7.10;;;6.90;;
4011;SDS011;2020;48.682;9.024;2022-07-24T14:08:20;6.77;;;6.57;;
4011;SDS011;2020;48.682;9.024;2022-07-24T14:10:45;7.50;;;7.20;;
4011;SDS011;2020;48.682;9.024;2022-07-24T14:13:10;6.47;;;6.17;;
4011;SDS011;2020;48.682;9.024;2022-07-24T14:15:36;6.90;;;6.60;;
4011;SDS011;2020;48.682;9.024;2022-07-24T14:18:02;8.17;;;7.67;;
4011;SDS011;2020;48.682;9.024;2022-07-24T14:20:28;6.53;;;6.33;;
4011;SDS011;2020;48.682;9.024;2022-07-24T14:22:53;6.73;;;6.43;;
4011;SDS011;2020;48.682;9.024;2022-07-24T14:25:18;7.33;;;7.03;;
4011;SDS011;2020;48.682;9.024;2022-07-24T14:27:43;6.20;;;6.00;;
4011;SDS011;2020;48.682;9.024;2022-07-24T14:30:09;6.40;;;6.20;;
4011;SDS011;2020;48.682;9.024;2022-07-24T14:32:34;6.57;;;6.27;;
4011;SDS011;2020;48.682;9.024;2022-07-24T14:35:00;6.43;;;6.23;;
4011;SDS011;2020;48.682;9.024;2022-07-24T14:37:26;7.20;;;6.80;;
4011;SDS011;2020;48.682;9.024;2022-07-24T14:39:51;7.10;;;6.83;;
4011;SDS011;2020;48.682;9.024;2022-07-24T14:42:17;6.87;;;6.60;;
4011;SDS011;2020;48.682;9.024;2022-07-24T14:44:42;6.53;;;6.23;;
4011;SDS011;2020;48.682;9.024;2022-07-24T14:47:07;6.50;;;6.30;;
4011;SDS011;2020;48.682;9.024;2022-07-24T14:49:32;6.90;;;6.60;;
4011;SDS011;2020;48.682;9.024;2022-07-24T14:51:58;6.90;;;6.53;;
4011;SDS011;2020;48.682;9.024;2022-07-24T14:54:24;7.37;;;6.97;;
4011;SDS011;2020;48.682;9.024;2022-07-24T14:56:50;7.37;;;7.07;;
4011;SDS011;2020;48.682;9.024;2022-07-24T14:59:17;7.67;;;7.27;;
4011;SDS011;2020;48.682;9.024;2022-07-24T15:01:42;6.50;;;6.23;;
4011;SDS011;2020;48.682;9.024;2022-07-24T15:04:07;6.53;;;6.27;;
4011;SDS011;2020;48.682;9.024;2022-07-24T15:06:33;7.40;;;7.00;;
4011;SDS011;2020;48.682;9.024;2022-07-24T15:08:59;7.17;;;6.87;;
4011;SDS011;2020;48.682;9.024;2022-07-24T15:11:24;7.03;;;6.57;;
4011;SDS011;2020;48.682;9.024;2022-07-24T15:13:53;6.37;;;6.17;;
4011;SDS011;2020;48.682;9.024;2022-07-24T15:16:18;6.57;;;6.37;;
4011;SDS011;2020;48.682;9.024;2022-07-24T15:18:44;7.30;;;7.00;;
4011;SDS011;2020;48.682;9.024;2022-07-24T15:21:09;7.03;;;6.73;;
4011;SDS011;2020;48.682;9.024;2022-07-24T15:23:35;6.40;;;6.20;;
4011;SDS011;2020;48.682;9.024;2022-07-24T15:26:01;6.93;;;6.53;;
4011;SDS011;2020;48.682;9.024;2022-07-24T15:28:26;6.60;;;6.40;;
4011;SDS011;2020;48.682;9.024;2022-07-24T15:30:52;6.60;;;6.20;;